Lynchburg Regional Preston Glenn Field Lynchburg US
ICAO: KLYH
IATA: LYH
Category: Medium
Scheduled Services: Yes

Elevation: 938 ft
TransAlt. 18000 ft.

Airport Communications:
ROANOKE APP/DEP:125.47
ATIS:119.8
CTAF:127.65
GND:121.9
LEESBURG RDO:109.2
TWR:127.65
UNICOM:122.95

KLYH Zoom In..

Runways:

(A) RW 04 length 7100 ft width 150 ft
ILS 110.10 / hdg 36

(B) RW 17 length 3386 ft width 75 ft
---- / hdg 170

(C) RW 22 length 7100 ft width 150 ft
---- / hdg 216

(D) RW 35 length 3386 ft width 75 ft
---- / hdg 350

Location; KLYH
Day. 16 / Time. 18.01 Zulu
* Altimeter: 30.02
* Temperature: 30° c. 86°f.
* Wind from: 170° Speed 09 kn with Gusts up to 16 kn.
Dewpoint: 22° c.
Visibility: 10 Statute Miles.
Clouds: Scattered 4100 ft.
Clouds: Scattered 5500 ft.
Conditions: Thunderstorm.Conditions: Thunderstorm.

KLYH 161801Z 17009G16KT 10SM TS SCT041 SCT055 30/22 A3002 RMK AO2 LTG DSNT NE TSB1755 TS E MVNG N T03000217


Wind From 170°
Speed 09 kn.

 
 
jpsmedia.com for Web Design worldairports.se 2018   terms of use